createdAt,value
2023-03-25T00:06:12.183Z,99822.13
2023-03-25T00:13:13.770Z,99835.03
2023-03-25T00:20:15.455Z,99806.06
2023-03-25T00:27:19.840Z,99812.44
2023-03-25T00:34:21.375Z,99806.53
2023-03-25T00:41:27.352Z,99798.06
2023-03-25T00:48:29.694Z,99820.16
2023-03-25T00:55:31.578Z,99827.38
2023-03-25T01:02:34.077Z,99823.91
2023-03-25T01:09:36.149Z,99823.91
2023-03-25T01:16:37.667Z,99820.19
2023-03-25T01:23:39.264Z,99830.63
2023-03-25T01:30:40.979Z,99814.53
2023-03-25T01:37:44.492Z,99798.59
2023-03-25T01:44:45.994Z,99785.97
2023-03-25T01:51:47.518Z,99784.09
2023-03-25T01:58:49.627Z,99786.50
2023-03-25T02:06:06.652Z,99781.97
2023-03-25T02:13:08.165Z,99775.41
2023-03-25T02:20:44.434Z,99752.31
2023-03-25T02:27:55.003Z,99749.13
2023-03-25T02:35:23.249Z,99749.91
2023-03-25T02:42:34.677Z,99740.50
2023-03-25T02:49:41.992Z,99729.81
2023-03-25T02:56:44.638Z,99730.19
2023-03-25T03:03:46.356Z,99723.53
2023-03-25T03:11:06.788Z,99713.97
2023-03-25T03:18:38.119Z,99715.59
2023-03-25T03:25:51.132Z,99721.00
2023-03-25T03:32:56.042Z,99725.91
2023-03-25T03:39:57.587Z,99727.84
2023-03-25T03:47:21.260Z,99727.84
2023-03-25T03:54:25.209Z,99739.50
2023-03-25T04:01:35.361Z,99731.47
2023-03-25T04:08:58.680Z,99727.81
2023-03-25T04:16:00.528Z,99723.53
2023-03-25T04:23:04.603Z,99719.97
2023-03-25T04:30:07.216Z,99723.63
2023-03-25T04:37:08.823Z,99720.56
2023-03-25T04:44:10.987Z,99723.03
2023-03-25T04:51:12.775Z,99729.81
2023-03-25T04:58:15.792Z,99718.56
2023-03-25T05:05:18.685Z,99717.41
2023-03-25T05:12:20.480Z,99719.88
2023-03-25T05:19:22.004Z,99718.28
2023-03-25T05:26:24.298Z,99718.09
2023-03-25T05:33:26.016Z,99719.28
2023-03-25T05:40:27.637Z,99715.59
2023-03-25T05:47:29.197Z,99718.75
2023-03-25T05:54:30.812Z,99728.31
2023-03-25T06:01:34.140Z,99736.25
2023-03-25T06:08:35.961Z,99736.56
2023-03-25T06:15:40.530Z,99750.41
2023-03-25T06:22:44.106Z,99755.75
2023-03-25T06:29:45.845Z,99761.00
2023-03-25T06:36:50.053Z,99763.41
2023-03-25T06:43:51.763Z,99772.16
2023-03-25T06:50:57.298Z,99761.59
2023-03-25T06:57:58.819Z,99753.63
2023-03-25T07:05:00.643Z,99753.13
2023-03-25T07:12:02.433Z,99761.81
2023-03-25T07:19:04.088Z,99761.00
2023-03-25T07:26:05.901Z,99771.41
2023-03-25T07:33:08.147Z,99770.19
2023-03-25T07:40:10.339Z,99776.41
2023-03-25T07:47:11.950Z,99775.13
2023-03-25T07:54:13.533Z,99769.44
2023-03-25T08:01:15.595Z,99777.28
2023-03-25T08:08:17.216Z,99776.19
2023-03-25T08:15:18.908Z,99790.06
2023-03-25T08:22:20.584Z,99763.59
2023-03-25T08:29:22.124Z,99771.88
2023-03-25T08:36:23.972Z,99773.50
2023-03-25T08:43:26.090Z,99768.28
2023-03-25T08:50:28.217Z,99763.03
2023-03-25T08:57:29.843Z,99759.69
2023-03-25T09:04:31.517Z,99760.97
2023-03-25T09:11:36.812Z,99760.13
2023-03-25T09:18:38.780Z,99769.56
2023-03-25T09:25:40.339Z,99767.41
2023-03-25T09:32:42.034Z,99758.84
2023-03-25T09:39:43.662Z,99763.31
2023-03-25T09:46:45.300Z,99778.19
2023-03-25T09:53:53.593Z,99773.72
2023-03-25T10:01:27.693Z,99765.56
2023-03-25T10:09:04.724Z,99773.94
2023-03-25T10:16:14.122Z,99762.75
2023-03-25T10:23:30.751Z,99767.50
2023-03-25T10:30:38.699Z,99760.59
2023-03-25T10:37:42.010Z,99749.09
2023-03-25T10:44:44.616Z,99746.53
2023-03-25T10:51:46.669Z,99743.19
2023-03-25T10:58:51.720Z,99727.47
2023-03-25T11:05:54.139Z,99730.34
2023-03-25T11:12:58.298Z,99717.22
2023-03-25T11:20:02.055Z,99719.63
2023-03-25T11:27:04.025Z,99718.84
2023-03-25T11:34:12.780Z,99715.78
2023-03-25T11:41:14.598Z,99729.31
2023-03-25T11:48:18.089Z,99712.00
2023-03-25T11:55:46.420Z,99717.19
2023-03-25T12:02:48.167Z,99697.97
2023-03-25T12:10:05.357Z,99692.72
2023-03-25T12:17:47.948Z,99672.59
2023-03-25T12:25:12.110Z,99668.41
2023-03-25T12:32:35.586Z,99665.75
2023-03-25T12:40:18.911Z,99664.06
2023-03-25T12:47:42.087Z,99663.09
2023-03-25T12:55:09.991Z,99644.25
2023-03-25T13:02:39.206Z,99648.81
2023-03-25T13:09:40.747Z,99658.91
2023-03-25T13:16:42.588Z,99658.56
2023-03-25T13:23:45.455Z,99672.47
2023-03-25T13:30:47.054Z,99682.88
2023-03-25T13:37:50.238Z,99679.38
2023-03-25T13:44:52.101Z,99706.97
2023-03-25T13:51:53.697Z,99698.31
2023-03-25T13:59:28.334Z,99702.69
2023-03-25T14:06:59.597Z,99692.22
2023-03-25T14:14:04.523Z,99684.88
2023-03-25T14:21:27.134Z,99690.56
2023-03-25T14:28:37.552Z,99683.84
2023-03-25T14:35:39.213Z,99676.81
2023-03-25T14:42:42.704Z,99667.69
2023-03-25T14:49:51.121Z,99653.66
2023-03-25T14:56:56.880Z,99647.84
2023-03-25T15:04:13.520Z,99648.81
2023-03-25T15:11:16.933Z,99635.09
2023-03-25T15:18:37.031Z,99628.19
2023-03-25T15:25:38.587Z,99631.28
2023-03-25T15:33:08.938Z,99630.72
2023-03-25T15:40:34.872Z,99629.28
2023-03-25T15:47:50.642Z,99628.63
2023-03-25T15:54:56.866Z,99621.44
2023-03-25T16:01:58.505Z,99621.97
2023-03-25T16:09:00.702Z,99632.53
2023-03-25T16:16:02.355Z,99642.78
2023-03-25T16:23:04.821Z,99681.41
2023-03-25T16:30:22.775Z,99685.88
2023-03-25T16:37:25.305Z,99670.81
2023-03-25T16:44:26.951Z,99665.00
2023-03-25T16:51:29.359Z,99671.41
2023-03-25T16:58:31.150Z,99676.91
2023-03-25T17:05:33.235Z,99675.22
2023-03-25T17:12:34.838Z,99680.50
2023-03-25T17:19:36.385Z,99671.38
2023-03-25T17:27:11.715Z,99704.84
2023-03-25T17:34:24.216Z,99710.94
2023-03-25T17:41:30.656Z,99701.97
2023-03-25T17:48:32.252Z,99718.13
2023-03-25T17:55:33.802Z,99714.38
2023-03-25T18:02:35.651Z,99720.00
2023-03-25T18:09:37.284Z,99699.94
2023-03-25T18:16:39.030Z,99699.00
2023-03-25T18:23:41.146Z,99700.19
2023-03-25T18:30:49.312Z,99709.38
2023-03-25T18:37:51.269Z,99696.09
2023-03-25T18:44:52.894Z,99693.06
2023-03-25T18:51:54.533Z,99696.63
2023-03-25T18:58:56.394Z,99700.19
2023-03-25T19:05:58.588Z,99703.47
2023-03-25T19:13:00.477Z,99689.59
2023-03-25T19:20:04.083Z,99709.41
2023-03-25T19:27:05.796Z,99728.44
2023-03-25T19:34:08.209Z,99729.19
2023-03-25T19:41:11.490Z,99720.13
2023-03-25T19:48:13.149Z,99688.91
2023-03-25T19:55:15.412Z,99676.28
2023-03-25T20:02:17.299Z,99687.84
2023-03-25T20:09:18.973Z,99683.91
2023-03-25T20:16:22.067Z,99685.28
2023-03-25T20:23:23.764Z,99681.25
2023-03-25T20:30:25.541Z,99673.66
2023-03-25T20:37:27.164Z,99680.63
2023-03-25T20:44:28.870Z,99686.88
2023-03-25T20:51:30.604Z,99688.59
2023-03-25T20:58:32.226Z,99682.69
2023-03-25T21:05:33.743Z,99676.81
2023-03-25T21:12:43.610Z,99678.41
2023-03-25T21:19:46.429Z,99683.94
2023-03-25T21:26:49.108Z,99704.88
2023-03-25T21:33:52.519Z,99696.53
2023-03-25T21:40:57.777Z,99681.41
2023-03-25T21:48:02.344Z,99672.88
2023-03-25T21:55:05.367Z,99667.28
2023-03-25T22:02:08.533Z,99670.66
2023-03-25T22:09:10.155Z,99674.53
2023-03-25T22:16:12.669Z,99680.34
2023-03-25T22:23:14.284Z,99667.06
2023-03-25T22:30:16.135Z,99677.72
2023-03-25T22:37:17.706Z,99674.41
2023-03-25T22:44:19.450Z,99666.84
2023-03-25T22:51:21.149Z,99670.03
2023-03-25T22:58:23.973Z,99673.38
2023-03-25T23:05:25.511Z,99669.31
2023-03-25T23:12:27.134Z,99673.56
2023-03-25T23:19:28.666Z,99682.22
2023-03-25T23:26:38.767Z,99679.03
2023-03-25T23:33:40.824Z,99688.34
2023-03-25T23:40:42.347Z,99689.97
2023-03-25T23:47:43.902Z,99697.56
2023-03-25T23:54:47.284Z,99711.03
